Time;durP1;ratioP1;P1;durP2;ratioP2;P2;SDS_P1;SDS_P2;PMS_P1;PMS_P2;Temp;Humidity;BMP_temperature;BMP_pressure;BME280_temperature;BME280_humidity;BME280_pressure;Samples;Min_cycle;Max_cycle;Signal;HPM_P1;HPM_P2
2021/03/03 00:01:19;;;;;;;57.88;41.08;;;6.60;67.90;;;;;;5005030;28;20034;-78
2021/03/03 00:03:46;;;;;;;61.70;41.15;;;6.60;67.90;;;;;;5020617;28;20037;-79
2021/03/03 00:06:12;;;;;;;58.80;42.85;;;6.50;67.70;;;;;;5006044;28;20038;-78
2021/03/03 00:08:38;;;;;;;58.30;43.35;;;6.50;67.70;;;;;;5004678;28;20061;-78
2021/03/03 00:11:04;;;;;;;62.17;41.08;;;6.50;67.80;;;;;;5005544;28;20368;-79
2021/03/03 00:13:30;;;;;;;60.20;40.15;;;6.50;67.80;;;;;;5003853;28;20030;-80
2021/03/03 00:15:56;;;;;;;60.28;40.20;;;6.50;67.80;;;;;;5005838;28;20041;-78
2021/03/03 00:18:22;;;;;;;64.07;42.60;;;6.50;67.90;;;;;;5006715;28;20033;-80
2021/03/03 00:20:48;;;;;;;55.60;39.70;;;6.50;67.90;;;;;;5005371;28;20049;-80
2021/03/03 00:23:14;;;;;;;54.75;40.15;;;6.40;67.70;;;;;;5006084;28;20262;-81
2021/03/03 00:25:40;;;;;;;60.35;39.88;;;6.40;67.80;;;;;;5006758;28;20078;-78
2021/03/03 00:28:06;;;;;;;60.15;42.40;;;6.40;67.80;;;;;;5004038;28;20163;-81
2021/03/03 00:30:32;;;;;;;63.55;41.67;;;6.40;67.80;;;;;;5003794;28;20515;-78
2021/03/03 00:32:58;;;;;;;58.22;38.17;;;6.40;67.90;;;;;;5004237;28;20041;-80
2021/03/03 00:35:24;;;;;;;60.03;40.70;;;6.40;67.90;;;;;;5004511;28;20030;-80
2021/03/03 00:37:49;;;;;;;63.22;41.42;;;6.40;67.90;;;;;;5020741;28;20068;-80
2021/03/03 00:40:16;;;;;;;63.47;44.08;;;6.40;67.90;;;;;;5003676;28;20262;-78
2021/03/03 00:42:42;;;;;;;61.00;40.63;;;6.40;67.90;;;;;;5003777;28;20574;-80
2021/03/03 00:45:08;;;;;;;57.08;41.20;;;6.40;68.00;;;;;;5004709;28;20270;-81
2021/03/03 00:47:35;;;;;;;55.20;39.63;;;6.40;68.00;;;;;;5003639;28;20155;-81
2021/03/03 00:50:04;;;;;;;60.58;39.78;;;6.40;68.00;;;;;;5003492;28;20026;-80
2021/03/03 00:52:34;;;;;;;58.90;39.75;;;6.40;68.00;;;;;;4987558;28;20533;-79
2021/03/03 00:55:01;;;;;;;66.70;41.90;;;6.40;68.00;;;;;;5011977;28;20112;-79
2021/03/03 00:57:27;;;;;;;59.90;41.22;;;6.40;68.00;;;;;;5023154;28;20120;-80
2021/03/03 00:59:53;;;;;;;62.60;42.05;;;6.40;68.00;;;;;;5008640;28;20479;-79
2021/03/03 01:02:19;;;;;;;61.33;42.30;;;6.40;68.10;;;;;;5002553;28;20137;-80
2021/03/03 01:04:46;;;;;;;57.88;40.80;;;6.40;68.10;;;;;;5003846;28;20030;-79
2021/03/03 01:07:11;;;;;;;57.40;42.65;;;6.40;68.10;;;;;;4986965;28;20065;-79
2021/03/03 01:09:37;;;;;;;59.22;40.58;;;6.40;68.10;;;;;;4986844;28;20084;-77
2021/03/03 01:12:04;;;;;;;61.03;40.33;;;6.40;68.10;;;;;;5004561;28;20125;-76
2021/03/03 01:14:32;;;;;;;64.90;43.58;;;6.40;68.10;;;;;;4989151;28;20568;-78
2021/03/03 01:16:58;;;;;;;55.42;39.03;;;6.40;68.10;;;;;;5007635;28;20026;-78
2021/03/03 01:19:36;;;;;;;71.97;44.30;;;6.40;68.10;;;;;;5007945;28;20030;-78
2021/03/03 01:22:02;;;;;;;61.35;42.60;;;6.40;68.60;;;;;;4991366;28;20037;-80
2021/03/03 01:24:28;;;;;;;62.45;41.55;;;6.40;68.10;;;;;;4991510;28;20052;-79
2021/03/03 01:26:54;;;;;;;61.08;41.67;;;6.40;68.10;;;;;;4991052;28;20473;-79
2021/03/03 01:29:19;;;;;;;56.17;41.17;;;6.40;68.10;;;;;;4989265;28;20038;-79
2021/03/03 01:31:46;;;;;;;57.08;40.95;;;6.40;68.10;;;;;;5022487;28;20080;-77
2021/03/03 01:34:12;;;;;;;62.25;43.53;;;6.40;68.10;;;;;;5005652;28;20033;-77
2021/03/03 01:36:38;;;;;;;68.85;42.88;;;6.40;68.10;;;;;;5006215;28;20026;-78
2021/03/03 01:39:04;;;;;;;60.67;41.63;;;6.40;68.10;;;;;;4989340;28;20032;-78
2021/03/03 01:41:30;;;;;;;58.83;40.95;;;6.40;68.20;;;;;;5021684;28;20030;-79
2021/03/03 01:43:56;;;;;;;59.45;41.90;;;6.40;68.20;;;;;;4992890;28;20034;-78
2021/03/03 01:46:23;;;;;;;60.17;41.88;;;6.40;68.20;;;;;;4986534;28;20037;-79
2021/03/03 01:48:49;;;;;;;65.60;41.90;;;6.40;68.20;;;;;;5005590;28;20379;-78
2021/03/03 01:51:17;;;;;;;62.88;42.28;;;6.50;68.40;;;;;;5006031;28;20117;-77
2021/03/03 01:53:43;;;;;;;59.90;40.17;;;6.40;68.20;;;;;;5005813;28;20467;-79
2021/03/03 01:56:11;;;;;;;65.28;42.20;;;6.50;68.40;;;;;;5025480;28;20525;-76
2021/03/03 01:58:37;;;;;;;58.03;40.88;;;6.50;68.40;;;;;;5021977;28;20046;-76
2021/03/03 02:01:03;;;;;;;64.32;42.90;;;6.50;68.40;;;;;;5004347;28;20489;-76
2021/03/03 02:03:29;;;;;;;60.28;43.13;;;6.50;68.40;;;;;;5004374;28;20042;-76
2021/03/03 02:06:03;;;;;;;58.45;42.60;;;6.50;68.30;;;;;;5005151;28;20476;-76
2021/03/03 02:08:37;;;;;;;59.13;40.78;;;6.50;68.30;;;;;;5005083;28;20026;-76
2021/03/03 02:11:22;;;;;;;57.42;40.17;;;6.50;68.40;;;;;;5005328;28;20504;-76
2021/03/03 02:13:59;;;;;;;59.50;42.53;;;6.50;68.30;;;;;;5005151;28;20034;-77
2021/03/03 02:16:28;;;;;;;61.58;41.60;;;6.50;68.30;;;;;;5006738;28;20486;-76
2021/03/03 02:18:55;;;;;;;57.92;41.97;;;6.50;68.30;;;;;;5005439;28;20038;-78
2021/03/03 02:21:37;;;;;;;56.38;40.60;;;6.50;68.30;;;;;;5004744;28;20505;-76
2021/03/03 02:24:15;;;;;;;60.85;41.00;;;6.50;68.30;;;;;;5005287;28;20085;-79
2021/03/03 02:26:43;;;;;;;57.25;40.03;;;6.50;68.30;;;;;;5021540;28;20061;-76
2021/03/03 02:29:19;;;;;;;57.45;41.47;;;6.50;68.40;;;;;;5004942;28;20423;-78
2021/03/03 02:31:49;;;;;;;60.60;41.53;;;6.50;68.30;;;;;;5005472;28;20038;-79
2021/03/03 02:34:17;;;;;;;54.65;38.60;;;6.50;68.30;;;;;;4989772;28;20153;-78
2021/03/03 02:36:44;;;;;;;65.55;42.00;;;6.50;68.30;;;;;;5006598;28;20513;-80
2021/03/03 02:39:11;;;;;;;57.50;40.90;;;6.50;68.40;;;;;;4989731;28;20038;-79
2021/03/03 02:41:40;;;;;;;60.20;41.33;;;6.50;68.40;;;;;;5007450;28;20048;-79
2021/03/03 02:44:07;;;;;;;60.65;41.60;;;6.50;68.40;;;;;;5022526;28;20494;-79
2021/03/03 02:46:34;;;;;;;59.42;41.38;;;6.50;68.40;;;;;;5005477;28;20038;-80
2021/03/03 02:49:01;;;;;;;57.42;41.08;;;6.50;68.40;;;;;;5010833;28;20072;-77
2021/03/03 02:51:28;;;;;;;60.75;42.75;;;6.50;68.40;;;;;;5011437;28;20049;-76
2021/03/03 02:53:54;;;;;;;57.03;41.53;;;6.60;68.60;;;;;;5010818;28;20045;-81
2021/03/03 02:56:20;;;;;;;58.03;37.63;;;6.50;68.40;;;;;;5030593;28;20026;-80
2021/03/03 02:58:46;;;;;;;57.40;41.05;;;6.60;68.60;;;;;;5029013;28;20084;-78
2021/03/03 03:01:14;;;;;;;61.58;41.63;;;6.50;68.40;;;;;;5002847;28;20355;-78
2021/03/03 03:03:59;;;;;;;63.55;42.13;;;6.60;68.60;;;;;;5008630;28;20050;-78
2021/03/03 03:06:38;;;;;;;50.30;38.17;;;6.60;68.60;;;;;;5010597;28;20049;-79
2021/03/03 03:09:06;;;;;;;62.65;43.78;;;6.60;68.60;;;;;;4993546;28;20040;-80
2021/03/03 03:11:35;;;;;;;56.80;41.33;;;6.60;68.50;;;;;;5009229;28;20120;-80
2021/03/03 03:14:13;;;;;;;58.92;40.70;;;6.60;68.50;;;;;;5010569;28;20104;-78
2021/03/03 03:16:42;;;;;;;53.00;38.13;;;6.60;68.60;;;;;;5010213;28;20060;-78
2021/03/03 03:19:11;;;;;;;53.80;39.25;;;6.60;68.50;;;;;;5010586;28;20026;-78
2021/03/03 03:21:39;;;;;;;59.38;41.60;;;6.60;68.60;;;;;;5008971;28;20022;-77
2021/03/03 03:24:07;;;;;;;48.67;37.75;;;6.60;68.60;;;;;;5008990;28;20362;-77
2021/03/03 03:26:36;;;;;;;56.95;39.83;;;6.60;68.60;;;;;;5010530;28;20102;-79
2021/03/03 03:29:02;;;;;;;52.75;39.70;;;6.60;68.60;;;;;;4992631;28;20030;-77
2021/03/03 03:31:29;;;;;;;53.08;39.30;;;6.60;68.60;;;;;;5008977;28;20048;-79
2021/03/03 03:33:55;;;;;;;54.95;40.92;;;6.60;68.60;;;;;;4992607;28;20389;-78
2021/03/03 03:36:22;;;;;;;62.78;41.08;;;6.60;68.60;;;;;;5007375;28;20025;-79
2021/03/03 03:38:47;;;;;;;49.60;37.58;;;6.60;68.60;;;;;;5008981;28;20073;-78
2021/03/03 03:41:14;;;;;;;54.13;37.85;;;6.60;68.60;;;;;;5008805;28;20064;-78
2021/03/03 03:43:41;;;;;;;51.15;37.97;;;6.60;68.60;;;;;;4991975;28;20169;-77
2021/03/03 03:46:08;;;;;;;55.30;38.75;;;6.60;68.70;;;;;;5009013;28;20133;-78
2021/03/03 03:48:37;;;;;;;55.10;38.20;;;6.60;68.60;;;;;;5009523;28;20030;-78
2021/03/03 03:51:04;;;;;;;53.08;37.80;;;6.60;68.60;;;;;;5008774;28;20059;-80
2021/03/03 03:53:32;;;;;;;56.50;38.35;;;6.60;68.60;;;;;;5010041;28;20151;-78
2021/03/03 03:55:58;;;;;;;51.72;36.72;;;6.60;68.60;;;;;;5008019;28;20040;-78
2021/03/03 03:58:24;;;;;;;54.53;38.15;;;6.60;68.60;;;;;;5008525;28;20052;-78
2021/03/03 04:00:50;;;;;;;48.90;34.70;;;6.70;68.80;;;;;;5007185;28;20038;-78
2021/03/03 04:03:16;;;;;;;52.15;36.70;;;6.60;68.60;;;;;;5008378;28;20425;-79
2021/03/03 04:05:42;;;;;;;51.22;37.95;;;6.60;68.60;;;;;;5009552;28;20112;-76
2021/03/03 04:08:08;;;;;;;48.00;35.75;;;6.60;68.60;;;;;;5008637;28;20037;-77
2021/03/03 04:10:34;;;;;;;49.97;35.38;;;6.60;68.60;;;;;;5009343;28;20452;-80
2021/03/03 04:13:00;;;;;;;53.65;37.72;;;6.60;68.60;;;;;;5009966;28;20033;-79
2021/03/03 04:15:26;;;;;;;51.85;36.33;;;6.60;68.60;;;;;;5008841;28;20045;-77
2021/03/03 04:17:52;;;;;;;51.33;37.13;;;6.60;68.60;;;;;;5009944;28;20535;-76
2021/03/03 04:20:19;;;;;;;48.45;34.78;;;6.60;68.60;;;;;;5009529;28;20343;-79
2021/03/03 04:22:46;;;;;;;54.60;36.67;;;6.60;68.60;;;;;;5009636;28;20026;-77
2021/03/03 04:25:14;;;;;;;48.95;35.05;;;6.60;68.70;;;;;;5008879;28;20040;-79
2021/03/03 04:27:40;;;;;;;52.45;38.25;;;6.60;68.70;;;;;;5009686;28;20033;-77
2021/03/03 04:30:12;;;;;;;52.80;37.33;;;6.60;68.70;;;;;;5009151;28;20066;-78
2021/03/03 04:32:39;;;;;;;51.22;37.33;;;6.60;68.70;;;;;;5009114;28;20053;-79
2021/03/03 04:35:06;;;;;;;48.25;35.72;;;6.60;68.70;;;;;;5009731;28;20382;-76
2021/03/03 04:37:32;;;;;;;49.83;36.92;;;6.60;68.70;;;;;;5009800;28;20038;-78
2021/03/03 04:39:58;;;;;;;52.65;35.88;;;6.60;68.70;;;;;;5007901;28;20030;-77
2021/03/03 04:42:24;;;;;;;47.95;37.42;;;6.70;68.90;;;;;;5008190;28;20140;-76
2021/03/03 04:44:50;;;;;;;48.25;34.55;;;6.60;68.70;;;;;;5009153;28;20030;-76
2021/03/03 04:47:16;;;;;;;50.60;37.55;;;6.60;68.70;;;;;;5008912;28;20037;-76
2021/03/03 04:49:42;;;;;;;50.17;36.35;;;6.70;68.90;;;;;;5011786;28;20088;-79
2021/03/03 04:52:09;;;;;;;50.92;37.33;;;6.60;68.70;;;;;;5012001;28;20030;-77
2021/03/03 04:54:35;;;;;;;50.92;36.60;;;6.60;68.70;;;;;;5017132;28;20037;-79
2021/03/03 04:57:05;;;;;;;45.50;35.53;;;6.60;68.70;;;;;;5033227;28;20345;-76
2021/03/03 04:59:31;;;;;;;49.22;35.75;;;6.60;68.70;;;;;;5015190;28;20053;-77
2021/03/03 05:01:58;;;;;;;49.83;34.97;;;6.70;68.90;;;;;;5015264;28;20033;-79
2021/03/03 05:04:24;;;;;;;54.30;36.17;;;6.70;68.80;;;;;;5013070;28;20481;-82
2021/03/03 05:06:50;;;;;;;46.63;32.50;;;6.60;68.70;;;;;;4996420;28;20030;-79
2021/03/03 05:09:16;;;;;;;49.13;35.83;;;6.60;68.70;;;;;;5011206;28;20397;-79
2021/03/03 05:11:44;;;;;;;46.03;33.38;;;6.60;68.70;;;;;;4995515;28;20026;-80
2021/03/03 05:14:10;;;;;;;48.75;35.45;;;6.60;68.70;;;;;;5011593;28;20038;-76
2021/03/03 05:16:36;;;;;;;47.22;35.60;;;6.60;68.70;;;;;;4994814;28;20049;-80
2021/03/03 05:19:02;;;;;;;51.30;37.15;;;6.60;68.70;;;;;;4995090;28;20153;-76
2021/03/03 05:21:28;;;;;;;56.30;38.40;;;6.70;68.90;;;;;;5010917;28;20566;-76
2021/03/03 05:23:54;;;;;;;50.05;35.42;;;6.60;68.70;;;;;;5010954;28;20129;-80
2021/03/03 05:26:20;;;;;;;48.83;38.50;;;6.70;68.90;;;;;;5011707;28;20128;-77
2021/03/03 05:28:46;;;;;;;50.15;36.10;;;6.60;68.70;;;;;;5012450;28;20077;-77
2021/03/03 05:31:13;;;;;;;48.58;35.25;;;6.70;68.90;;;;;;5012573;28;20072;-79
2021/03/03 05:33:42;;;;;;;52.50;37.53;;;6.70;68.90;;;;;;4995160;28;20026;-80
2021/03/03 05:36:08;;;;;;;50.05;35.13;;;6.70;68.90;;;;;;5011296;28;20574;-75
2021/03/03 05:38:38;;;;;;;49.35;37.33;;;6.70;68.90;;;;;;5013119;28;20025;-76
2021/03/03 05:41:06;;;;;;;50.17;37.78;;;6.60;68.80;;;;;;5011502;28;20038;-77
2021/03/03 05:43:33;;;;;;;51.85;39.17;;;6.70;68.90;;;;;;4994208;28;20446;-76
2021/03/03 05:46:00;;;;;;;51.63;36.53;;;6.70;68.90;;;;;;5010951;28;20040;-76
2021/03/03 05:48:31;;;;;;;53.03;36.22;;;6.70;68.90;;;;;;4999887;28;20336;-78
2021/03/03 05:51:04;;;;;;;52.10;36.97;;;6.70;68.90;;;;;;4987760;28;20119;-77
2021/03/03 05:53:30;;;;;;;48.70;36.28;;;6.70;68.90;;;;;;5003594;28;20124;-75
2021/03/03 05:55:58;;;;;;;45.85;36.55;;;6.70;68.90;;;;;;5037708;28;20034;-78
2021/03/03 05:58:26;;;;;;;57.75;40.40;;;6.70;68.90;;;;;;5021916;28;20137;-79
2021/03/03 06:00:55;;;;;;;58.10;37.85;;;6.70;68.90;;;;;;5007096;28;20076;-76
2021/03/03 06:03:23;;;;;;;56.45;38.42;;;6.70;68.90;;;;;;5005925;28;20038;-75
2021/03/03 06:05:50;;;;;;;53.20;38.72;;;6.70;68.90;;;;;;5007831;28;20342;-75
2021/03/03 06:08:18;;;;;;;51.22;37.40;;;6.70;68.90;;;;;;5005848;28;20093;-76
2021/03/03 06:10:44;;;;;;;51.88;36.30;;;6.70;68.90;;;;;;5005518;28;20083;-77
2021/03/03 06:13:11;;;;;;;49.53;35.92;;;6.70;68.90;;;;;;5021781;28;20030;-79
2021/03/03 06:15:38;;;;;;;50.25;37.08;;;6.70;68.90;;;;;;5006290;28;20037;-77
2021/03/03 06:18:08;;;;;;;54.30;38.35;;;6.70;68.90;;;;;;5021476;28;20462;-82
2021/03/03 06:20:44;;;;;;;48.65;35.45;;;6.70;68.90;;;;;;5009344;28;20099;-77
2021/03/03 06:23:17;;;;;;;55.67;37.58;;;6.70;69.10;;;;;;4998353;28;20034;-82
2021/03/03 06:25:45;;;;;;;56.13;38.85;;;6.80;69.50;;;;;;4989838;28;20569;-78
2021/03/03 06:28:12;;;;;;;54.65;40.17;;;6.80;69.50;;;;;;4994273;28;20117;-76
2021/03/03 06:30:38;;;;;;;51.65;36.35;;;6.90;69.70;;;;;;5009549;28;20125;-75
2021/03/03 06:33:08;;;;;;;56.53;37.78;;;6.90;69.60;;;;;;5007662;28;20540;-79
2021/03/03 06:35:47;;;;;;;57.10;36.63;;;7.00;69.80;;;;;;4991811;28;20088;-82
2021/03/03 06:38:15;;;;;;;53.03;37.20;;;6.90;69.60;;;;;;5007943;28;20038;-79
2021/03/03 06:41:06;;;;;;;55.75;38.45;;;6.90;69.50;;;;;;5010977;28;20057;-76
2021/03/03 06:43:32;;;;;;;53.13;39.13;;;6.90;69.60;;;;;;5009656;28;20049;-80
2021/03/03 06:46:18;;;;;;;58.00;37.70;;;7.00;69.70;;;;;;5008370;28;20128;-77
2021/03/03 06:48:45;;;;;;;56.28;36.55;;;7.00;69.80;;;;;;5008410;28;20030;-77
2021/03/03 06:51:29;;;;;;;56.55;38.88;;;7.00;69.70;;;;;;5008286;28;20605;-77
2021/03/03 06:54:19;;;;;;;61.08;40.83;;;7.00;69.80;;;;;;4993360;28;20034;-78
2021/03/03 06:56:49;;;;;;;53.00;39.03;;;7.00;69.80;;;;;;5001361;28;20346;-78
2021/03/03 06:59:31;;;;;;;62.08;40.70;;;7.00;69.80;;;;;;5012233;28;20453;-78
2021/03/03 07:02:17;;;;;;;57.00;38.45;;;7.00;69.80;;;;;;4989888;28;20125;-78
2021/03/03 07:04:46;;;;;;;63.65;40.90;;;6.90;69.70;;;;;;5007846;28;20050;-79
2021/03/03 07:07:14;;;;;;;64.05;42.88;;;6.90;69.60;;;;;;5010714;28;20026;-78
2021/03/03 07:09:58;;;;;;;57.15;42.00;;;6.90;69.70;;;;;;5009776;28;20040;-78
2021/03/03 07:12:32;;;;;;;58.55;39.55;;;7.00;69.90;;;;;;5003905;28;20041;-77
2021/03/03 07:15:04;;;;;;;57.83;41.45;;;6.90;69.70;;;;;;4990979;28;20528;-80
2021/03/03 07:17:38;;;;;;;60.00;41.28;;;6.90;69.70;;;;;;5006095;28;20038;-79
2021/03/03 07:20:11;;;;;;;62.80;42.78;;;7.00;69.90;;;;;;5001479;28;20022;-79
2021/03/03 07:22:58;;;;;;;62.93;40.37;;;7.00;69.90;;;;;;5005302;28;20050;-77
2021/03/03 07:25:24;;;;;;;65.78;44.50;;;7.00;69.90;;;;;;5020897;28;20040;-77
2021/03/03 07:27:51;;;;;;;58.13;40.40;;;6.90;69.80;;;;;;5017050;28;20117;-76
2021/03/03 07:30:20;;;;;;;60.85;41.50;;;7.00;69.90;;;;;;4968432;28;20475;-77
2021/03/03 07:32:47;;;;;;;59.85;41.58;;;7.00;69.90;;;;;;4975814;28;20124;-78
2021/03/03 07:35:14;;;;;;;67.93;41.63;;;7.00;69.90;;;;;;5005695;28;20068;-82
2021/03/03 07:37:42;;;;;;;63.08;43.53;;;7.00;69.90;;;;;;4995529;28;20032;-80
2021/03/03 07:40:13;;;;;;;66.03;42.92;;;7.00;69.90;;;;;;5010656;28;20032;-75
2021/03/03 07:42:40;;;;;;;66.55;42.63;;;7.10;70.10;;;;;;5011425;28;20041;-84
2021/03/03 07:45:13;;;;;;;65.35;43.40;;;7.10;70.00;;;;;;4995412;28;20030;-78
2021/03/03 07:47:41;;;;;;;64.78;44.33;;;7.10;70.00;;;;;;4991675;28;20034;-79
2021/03/03 07:50:11;;;;;;;68.88;43.97;;;7.20;70.20;;;;;;5005353;28;20112;-76
2021/03/03 07:52:41;;;;;;;69.38;43.22;;;7.20;70.20;;;;;;5004233;28;20036;-75
2021/03/03 07:55:08;;;;;;;61.15;43.00;;;7.20;70.10;;;;;;4998301;28;20105;-78
2021/03/03 07:57:38;;;;;;;59.25;41.03;;;7.20;70.10;;;;;;5024534;28;20248;-76
2021/03/03 08:00:13;;;;;;;66.78;46.03;;;7.30;70.20;;;;;;5004174;28;20045;-75
2021/03/03 08:02:50;;;;;;;61.38;44.15;;;7.30;70.20;;;;;;5004988;28;20121;-74
2021/03/03 08:05:30;;;;;;;66.70;43.85;;;7.30;70.20;;;;;;5005883;28;20180;-74
2021/03/03 08:08:34;;;;;;;63.25;42.97;;;7.30;70.10;;;;;;5021414;28;20037;-75
2021/03/03 08:11:00;;;;;;;71.70;45.30;;;7.40;70.30;;;;;;5006160;28;20030;-74
2021/03/03 08:13:28;;;;;;;69.50;45.92;;;7.30;70.10;;;;;;5006336;28;20260;-81
2021/03/03 08:15:58;;;;;;;68.05;46.50;;;7.40;70.30;;;;;;5007834;28;20036;-76
2021/03/03 08:18:32;;;;;;;68.03;45.35;;;7.40;70.30;;;;;;4991545;28;20033;-77
2021/03/03 08:21:18;;;;;;;65.78;45.10;;;7.40;70.30;;;;;;4988051;28;20026;-75
2021/03/03 08:23:46;;;;;;;69.22;46.10;;;7.50;70.50;;;;;;4983671;28;20067;-78
2021/03/03 08:26:15;;;;;;;74.32;46.38;;;7.60;70.70;;;;;;5010331;28;20046;-79
2021/03/03 08:28:51;;;;;;;70.63;47.78;;;7.70;70.80;;;;;;5009069;28;20038;-76
2021/03/03 08:31:18;;;;;;;67.00;46.33;;;7.80;70.90;;;;;;4993104;28;20052;-75
2021/03/03 08:33:50;;;;;;;68.53;46.00;;;7.80;70.80;;;;;;4991496;28;20315;-76
2021/03/03 08:36:25;;;;;;;70.25;45.92;;;7.80;70.60;;;;;;4990605;28;20042;-74
2021/03/03 08:38:54;;;;;;;70.40;47.00;;;7.80;70.60;;;;;;5006640;28;20104;-74
2021/03/03 08:41:25;;;;;;;69.47;46.05;;;7.90;70.70;;;;;;5007890;28;20033;-73
2021/03/03 08:44:16;;;;;;;63.35;44.42;;;7.90;70.70;;;;;;4991520;28;20049;-76
2021/03/03 08:46:42;;;;;;;67.13;44.92;;;8.00;70.90;;;;;;5007062;28;20029;-77
2021/03/03 08:49:08;;;;;;;71.57;48.05;;;8.00;70.80;;;;;;4990884;28;20041;-76
2021/03/03 08:51:37;;;;;;;63.45;47.60;;;8.10;71.00;;;;;;5009779;28;20060;-83
2021/03/03 08:54:37;;;;;;;66.10;46.60;;;8.10;70.90;;;;;;5011265;28;20184;-76
2021/03/03 08:57:03;;;;;;;69.53;48.25;;;8.10;71.40;;;;;;5007310;28;20053;-80
2021/03/03 08:59:31;;;;;;;66.75;47.20;;;8.20;71.00;;;;;;5013860;28;20061;-76
2021/03/03 09:02:15;;;;;;;72.70;49.10;;;8.20;71.00;;;;;;5013358;28;20097;-76
2021/03/03 09:04:50;;;;;;;67.63;46.65;;;8.30;71.10;;;;;;5012222;28;20053;-78
2021/03/03 09:07:24;;;;;;;61.45;43.67;;;8.30;71.00;;;;;;5008607;28;20101;-76
2021/03/03 09:09:51;;;;;;;;;;;8.30;71.00;;;;;;5009274;28;20140;-75
2021/03/03 09:12:20;;;;;;;66.70;43.97;;;8.40;71.10;;;;;;5008044;28;20566;-74
2021/03/03 09:14:48;;;;;;;63.47;46.15;;;8.40;70.90;;;;;;5024109;28;20520;-76
2021/03/03 09:17:18;;;;;;;58.92;42.75;;;8.40;71.00;;;;;;5003894;28;20458;-77
2021/03/03 09:19:44;;;;;;;64.82;46.50;;;8.40;70.90;;;;;;5008788;28;20108;-79
2021/03/03 09:22:19;;;;;;;70.80;47.45;;;8.50;71.10;;;;;;4991370;28;20458;-79
2021/03/03 09:24:46;;;;;;;68.25;45.95;;;8.50;71.20;;;;;;5008841;28;20026;-79
2021/03/03 09:27:13;;;;;;;68.80;47.28;;;8.50;71.20;;;;;;5009209;28;20030;-82
2021/03/03 09:29:40;;;;;;;67.55;48.15;;;8.50;71.20;;;;;;5009814;28;20025;-77
2021/03/03 09:32:10;;;;;;;64.15;47.08;;;8.50;71.20;;;;;;5010217;28;20034;-80
2021/03/03 09:34:45;;;;;;;70.40;47.33;;;8.60;71.30;;;;;;5010046;28;20037;-80
2021/03/03 09:37:11;;;;;;;70.82;47.10;;;8.60;71.20;;;;;;5010136;28;20026;-77
2021/03/03 09:39:42;;;;;;;66.68;46.90;;;8.70;71.30;;;;;;5026399;28;20033;-77
2021/03/03 09:42:10;;;;;;;60.40;45.50;;;8.70;71.20;;;;;;5009358;28;20504;-82
2021/03/03 09:44:46;;;;;;;58.40;45.00;;;8.70;71.20;;;;;;5026560;28;20081;-77
2021/03/03 09:47:39;;;;;;;64.50;46.83;;;8.70;71.10;;;;;;5011720;28;20042;-90
2021/03/03 09:50:10;;;;;;;69.60;48.33;;;8.70;71.10;;;;;;4996490;28;20464;-80
2021/03/03 09:52:49;;;;;;;67.68;48.28;;;8.80;71.30;;;;;;5012811;28;20042;-81
2021/03/03 09:55:19;;;;;;;69.53;47.53;;;8.80;71.40;;;;;;5013821;28;20061;-80
2021/03/03 09:57:50;;;;;;;65.55;46.40;;;8.90;71.50;;;;;;4993503;28;20506;-81
2021/03/03 10:00:25;;;;;;;71.60;50.10;;;9.00;71.60;;;;;;4994064;28;20042;-79
2021/03/03 10:02:57;;;;;;;71.55;49.22;;;9.10;71.70;;;;;;4999924;28;20056;-80
2021/03/03 10:05:26;;;;;;;62.90;47.22;;;9.20;71.80;;;;;;4996434;28;20034;-77
2021/03/03 10:07:56;;;;;;;73.82;48.80;;;9.30;71.80;;;;;;5011497;28;20030;-80
2021/03/03 10:10:24;;;;;;;65.43;47.28;;;9.30;71.60;;;;;;5012030;28;20269;-75
2021/03/03 10:12:50;;;;;;;71.30;47.60;;;9.30;71.60;;;;;;5010867;28;20295;-81
2021/03/03 10:15:20;;;;;;;77.75;50.33;;;9.30;72.00;;;;;;5010771;28;20652;-83
2021/03/03 10:17:55;;;;;;;65.90;49.10;;;9.30;71.50;;;;;;5010946;28;20203;-81
2021/03/03 10:20:33;;;;;;;70.10;47.15;;;9.30;71.50;;;;;;5028191;28;20029;-79
2021/03/03 10:23:07;;;;;;;62.03;46.70;;;9.40;71.70;;;;;;5012644;28;20415;-82
2021/03/03 10:25:33;;;;;;;;;;;9.40;71.70;;;;;;5012858;28;20060;-80
2021/03/03 10:28:05;;;;;;;70.10;48.10;;;9.50;71.80;;;;;;5010940;28;19909;-79
2021/03/03 10:30:32;;;;;;;68.55;49.05;;;9.50;71.70;;;;;;5011776;28;20088;-84
2021/03/03 10:32:58;;;;;;;68.43;50.35;;;9.50;71.60;;;;;;5011335;28;20030;-76
2021/03/03 10:35:26;;;;;;;69.93;49.92;;;9.60;71.80;;;;;;5008566;28;20060;-78
2021/03/03 10:37:53;;;;;;;69.38;50.00;;;9.60;71.80;;;;;;5010821;28;20128;-79
2021/03/03 10:40:20;;;;;;;68.90;48.80;;;9.70;71.90;;;;;;5009291;28;20089;-81
2021/03/03 10:42:48;;;;;;;69.85;48.78;;;9.70;71.90;;;;;;5009753;28;20508;-77
2021/03/03 10:45:18;;;;;;;74.68;51.53;;;9.80;72.10;;;;;;5009732;28;20037;-80
2021/03/03 10:47:50;;;;;;;72.43;51.67;;;9.90;72.20;;;;;;5008941;28;20030;-86
2021/03/03 10:50:19;;;;;;;66.47;47.03;;;9.90;72.10;;;;;;5010301;28;20038;-78
2021/03/03 10:52:56;;;;;;;63.80;46.00;;;10.00;72.10;;;;;;5008185;28;20033;-77
2021/03/03 10:55:24;;;;;;;69.72;47.75;;;10.10;72.20;;;;;;5010028;28;20034;-79
2021/03/03 10:58:00;;;;;;;69.00;47.25;;;10.10;72.10;;;;;;5007549;28;20034;-77
2021/03/03 11:00:27;;;;;;;67.85;49.13;;;10.20;72.20;;;;;;5007385;28;20161;-77
2021/03/03 11:03:03;;;;;;;68.57;51.83;;;10.20;72.20;;;;;;5007035;28;20073;-80
2021/03/03 11:05:30;;;;;;;67.63;45.78;;;10.30;72.30;;;;;;5007803;28;20037;-77
2021/03/03 11:07:56;;;;;;;65.50;43.25;;;10.40;72.50;;;;;;5009022;28;20171;-78
2021/03/03 11:10:23;;;;;;;65.78;45.40;;;10.50;72.70;;;;;;5012591;28;20030;-81
2021/03/03 11:12:49;;;;;;;66.93;45.53;;;10.60;72.90;;;;;;5009388;28;20728;-79
2021/03/03 11:15:17;;;;;;;64.93;45.88;;;10.70;73.10;;;;;;5010662;28;20018;-79
2021/03/03 11:17:44;;;;;;;69.22;45.90;;;10.80;73.20;;;;;;5009647;28;20038;-79
2021/03/03 11:20:11;;;;;;;59.60;42.40;;;10.80;73.10;;;;;;5007549;28;20025;-79
2021/03/03 11:22:37;;;;;;;64.70;45.72;;;10.90;73.10;;;;;;5006780;28;20049;-77
2021/03/03 11:25:05;;;;;;;63.03;44.45;;;10.90;73.00;;;;;;5009531;28;20076;-82
2021/03/03 11:27:31;;;;;;;66.65;45.97;;;10.90;73.00;;;;;;5012880;28;20117;-78
2021/03/03 11:29:58;;;;;;;60.08;46.50;;;11.00;73.10;;;;;;5013658;28;20033;-74
2021/03/03 11:32:24;;;;;;;63.60;45.80;;;11.10;73.30;;;;;;5013640;28;20022;-77
2021/03/03 11:34:50;;;;;;;67.47;47.30;;;11.10;73.40;;;;;;5012353;28;20057;-87
2021/03/03 11:37:17;;;;;;;66.40;45.78;;;11.20;73.50;;;;;;5019058;28;20033;-79
2021/03/03 11:39:43;;;;;;;68.45;48.42;;;11.20;73.40;;;;;;5015637;28;20106;-83
2021/03/03 11:42:09;;;;;;;65.65;48.53;;;11.30;73.40;;;;;;5014479;28;20426;-79
2021/03/03 11:44:35;;;;;;;65.88;47.72;;;11.30;73.30;;;;;;5009247;28;20041;-76
2021/03/03 11:47:01;;;;;;;60.10;46.45;;;11.40;73.50;;;;;;5009614;28;20032;-76
2021/03/03 11:49:27;;;;;;;72.03;47.67;;;11.40;73.50;;;;;;5008135;28;20030;-80
2021/03/03 11:51:53;;;;;;;59.05;46.58;;;11.50;73.50;;;;;;5025853;28;20040;-83
2021/03/03 11:54:19;;;;;;;63.05;47.40;;;11.50;73.40;;;;;;5008517;28;20053;-75
2021/03/03 11:56:46;;;;;;;62.08;48.38;;;11.60;73.50;;;;;;5007429;28;20106;-78
2021/03/03 11:59:12;;;;;;;65.25;48.38;;;11.70;73.60;;;;;;5011653;28;20136;-78
2021/03/03 12:01:38;;;;;;;63.47;47.08;;;11.80;73.70;;;;;;5004577;28;20268;-80
2021/03/03 12:04:05;;;;;;;69.53;47.20;;;11.80;73.60;;;;;;5007807;28;20057;-77
2021/03/03 12:06:31;;;;;;;68.35;47.08;;;11.90;73.60;;;;;;5021058;28;20042;-77
2021/03/03 12:08:56;;;;;;;71.38;47.83;;;12.00;73.60;;;;;;5004254;28;20044;-77
2021/03/03 12:11:22;;;;;;;64.38;46.15;;;12.10;73.70;;;;;;5003842;28;20107;-78
2021/03/03 12:13:48;;;;;;;59.38;46.42;;;12.10;73.60;;;;;;5005774;28;20037;-80
2021/03/03 12:16:14;;;;;;;64.18;47.35;;;12.20;73.60;;;;;;5006091;28;20054;-79
2021/03/03 12:18:40;;;;;;;73.65;50.42;;;12.30;73.60;;;;;;5008312;28;20026;-75
2021/03/03 12:21:06;;;;;;;63.17;46.13;;;12.30;73.50;;;;;;5021571;28;20413;-77
2021/03/03 12:23:32;;;;;;;65.68;47.97;;;12.40;73.60;;;;;;5007335;28;20157;-77
2021/03/03 12:25:58;;;;;;;62.42;48.20;;;12.50;73.60;;;;;;5006728;28;20479;-75
2021/03/03 12:28:24;;;;;;;66.88;47.75;;;12.60;73.60;;;;;;5001116;28;20039;-78
2021/03/03 12:30:50;;;;;;;62.33;47.55;;;12.70;73.60;;;;;;4985342;28;20104;-80
2021/03/03 12:33:18;;;;;;;67.05;48.45;;;12.80;73.60;;;;;;4994897;28;20066;-75
2021/03/03 12:35:45;;;;;;;64.72;47.35;;;12.90;73.70;;;;;;5005847;28;20088;-75
2021/03/03 12:38:11;;;;;;;67.03;46.13;;;12.90;73.50;;;;;;5003734;28;20038;-74
2021/03/03 12:40:37;;;;;;;62.92;46.00;;;13.00;73.40;;;;;;5004490;28;20061;-74
2021/03/03 12:43:03;;;;;;;65.55;47.88;;;13.10;73.50;;;;;;5002992;28;20628;-75
2021/03/03 12:45:29;;;;;;;62.53;46.88;;;13.10;73.40;;;;;;5003411;28;20102;-74